sensor_id;sensor_type;location;lat;lon;timestamp;temperature;humidity
24814;DHT22;12904;50.088;11.414;2022-07-06T00:00:36;18.20;67.60
24814;DHT22;12904;50.088;11.414;2022-07-06T00:03:01;18.20;67.70
24814;DHT22;12904;50.088;11.414;2022-07-06T00:05:27;18.20;68.10
24814;DHT22;12904;50.088;11.414;2022-07-06T00:07:53;18.30;67.40
24814;DHT22;12904;50.088;11.414;2022-07-06T00:10:18;18.30;67.00
24814;DHT22;12904;50.088;11.414;2022-07-06T00:12:44;18.40;67.20
24814;DHT22;12904;50.088;11.414;2022-07-06T00:15:21;18.40;67.00
24814;DHT22;12904;50.088;11.414;2022-07-06T00:17:46;18.30;67.00
24814;DHT22;12904;50.088;11.414;2022-07-06T00:20:12;18.20;67.30
24814;DHT22;12904;50.088;11.414;2022-07-06T00:22:38;18.10;67.70
24814;DHT22;12904;50.088;11.414;2022-07-06T00:25:04;18.00;67.70
24814;DHT22;12904;50.088;11.414;2022-07-06T00:27:29;17.90;68.00
24814;DHT22;12904;50.088;11.414;2022-07-06T00:29:55;17.80;68.80
24814;DHT22;12904;50.088;11.414;2022-07-06T00:32:21;17.70;68.90
24814;DHT22;12904;50.088;11.414;2022-07-06T00:34:47;17.70;69.10
24814;DHT22;12904;50.088;11.414;2022-07-06T00:37:12;17.60;69.20
24814;DHT22;12904;50.088;11.414;2022-07-06T00:39:40;17.60;70.30
24814;DHT22;12904;50.088;11.414;2022-07-06T00:42:06;17.60;70.20
24814;DHT22;12904;50.088;11.414;2022-07-06T00:44:32;17.60;70.90
24814;DHT22;12904;50.088;11.414;2022-07-06T00:47:01;17.60;71.00
24814;DHT22;12904;50.088;11.414;2022-07-06T00:49:27;17.70;71.90
24814;DHT22;12904;50.088;11.414;2022-07-06T00:52:11;17.70;71.80
24814;DHT22;12904;50.088;11.414;2022-07-06T00:54:39;17.70;73.60
24814;DHT22;12904;50.088;11.414;2022-07-06T00:57:06;17.70;73.40
24814;DHT22;12904;50.088;11.414;2022-07-06T00:59:32;17.70;73.40
24814;DHT22;12904;50.088;11.414;2022-07-06T01:01:58;17.60;73.30
24814;DHT22;12904;50.088;11.414;2022-07-06T01:04:24;17.60;73.90
24814;DHT22;12904;50.088;11.414;2022-07-06T01:06:49;17.60;73.70
24814;DHT22;12904;50.088;11.414;2022-07-06T01:09:16;17.60;73.30
24814;DHT22;12904;50.088;11.414;2022-07-06T01:11:42;17.60;73.90
24814;DHT22;12904;50.088;11.414;2022-07-06T01:14:08;17.50;72.70
24814;DHT22;12904;50.088;11.414;2022-07-06T01:16:34;17.50;73.90
24814;DHT22;12904;50.088;11.414;2022-07-06T01:19:02;17.50;75.20
24814;DHT22;12904;50.088;11.414;2022-07-06T01:21:28;17.50;74.90
24814;DHT22;12904;50.088;11.414;2022-07-06T01:23:54;17.40;76.60
24814;DHT22;12904;50.088;11.414;2022-07-06T01:26:20;17.40;77.00
24814;DHT22;12904;50.088;11.414;2022-07-06T01:28:47;17.40;76.40
24814;DHT22;12904;50.088;11.414;2022-07-06T01:31:25;17.40;75.80
24814;DHT22;12904;50.088;11.414;2022-07-06T01:33:53;17.40;75.60
24814;DHT22;12904;50.088;11.414;2022-07-06T01:36:20;17.40;76.40
24814;DHT22;12904;50.088;11.414;2022-07-06T01:38:51;17.40;76.60
24814;DHT22;12904;50.088;11.414;2022-07-06T01:41:17;17.40;76.40
24814;DHT22;12904;50.088;11.414;2022-07-06T01:43:43;17.50;76.10
24814;DHT22;12904;50.088;11.414;2022-07-06T01:46:09;17.50;75.20
24814;DHT22;12904;50.088;11.414;2022-07-06T01:48:35;17.50;75.80
24814;DHT22;12904;50.088;11.414;2022-07-06T01:51:02;17.50;79.80
24814;DHT22;12904;50.088;11.414;2022-07-06T01:53:27;17.50;83.90
24814;DHT22;12904;50.088;11.414;2022-07-06T01:55:53;17.30;89.60
24814;DHT22;12904;50.088;11.414;2022-07-06T01:58:19;17.20;91.20
24814;DHT22;12904;50.088;11.414;2022-07-06T02:00:44;17.10;91.80
24814;DHT22;12904;50.088;11.414;2022-07-06T02:03:10;16.90;93.60
24814;DHT22;12904;50.088;11.414;2022-07-06T02:05:36;16.80;94.60
24814;DHT22;12904;50.088;11.414;2022-07-06T02:08:01;16.70;94.90
24814;DHT22;12904;50.088;11.414;2022-07-06T02:10:27;16.60;96.10
24814;DHT22;12904;50.088;11.414;2022-07-06T02:12:53;16.50;97.30
24814;DHT22;12904;50.088;11.414;2022-07-06T02:15:18;16.40;98.90
24814;DHT22;12904;50.088;11.414;2022-07-06T02:17:44;16.20;99.40
24814;DHT22;12904;50.088;11.414;2022-07-06T02:20:10;16.10;99.90
24814;DHT22;12904;50.088;11.414;2022-07-06T02:22:35;16.00;99.90
24814;DHT22;12904;50.088;11.414;2022-07-06T02:25:01;15.80;99.90
24814;DHT22;12904;50.088;11.414;2022-07-06T02:27:27;15.70;99.90
24814;DHT22;12904;50.088;11.414;2022-07-06T02:29:53;15.60;99.90
24814;DHT22;12904;50.088;11.414;2022-07-06T02:32:18;15.40;99.90
24814;DHT22;12904;50.088;11.414;2022-07-06T02:34:44;15.30;99.90
24814;DHT22;12904;50.088;11.414;2022-07-06T02:37:10;15.30;99.90
24814;DHT22;12904;50.088;11.414;2022-07-06T02:39:36;15.20;99.90
24814;DHT22;12904;50.088;11.414;2022-07-06T02:42:01;15.20;99.90
24814;DHT22;12904;50.088;11.414;2022-07-06T02:44:27;15.10;99.90
24814;DHT22;12904;50.088;11.414;2022-07-06T02:46:53;15.10;99.90
24814;DHT22;12904;50.088;11.414;2022-07-06T02:49:18;15.10;99.90
24814;DHT22;12904;50.088;11.414;2022-07-06T02:51:44;15.10;99.90
24814;DHT22;12904;50.088;11.414;2022-07-06T02:54:09;15.00;99.90
24814;DHT22;12904;50.088;11.414;2022-07-06T02:56:35;14.80;99.90
24814;DHT22;12904;50.088;11.414;2022-07-06T02:59:01;14.70;99.90
24814;DHT22;12904;50.088;11.414;2022-07-06T03:01:26;14.60;99.90
24814;DHT22;12904;50.088;11.414;2022-07-06T03:03:52;14.60;99.90
24814;DHT22;12904;50.088;11.414;2022-07-06T03:06:18;14.50;99.90
24814;DHT22;12904;50.088;11.414;2022-07-06T03:08:43;14.40;99.90
24814;DHT22;12904;50.088;11.414;2022-07-06T03:11:09;14.30;99.90
24814;DHT22;12904;50.088;11.414;2022-07-06T03:13:35;14.30;99.90
24814;DHT22;12904;50.088;11.414;2022-07-06T03:16:01;14.20;99.90
24814;DHT22;12904;50.088;11.414;2022-07-06T03:18:26;14.20;99.90
24814;DHT22;12904;50.088;11.414;2022-07-06T03:20:53;14.10;99.90
24814;DHT22;12904;50.088;11.414;2022-07-06T03:23:18;14.10;99.90
24814;DHT22;12904;50.088;11.414;2022-07-06T03:25:44;14.00;99.90
24814;DHT22;12904;50.088;11.414;2022-07-06T03:28:10;14.00;99.90
24814;DHT22;12904;50.088;11.414;2022-07-06T03:30:36;13.90;99.90
24814;DHT22;12904;50.088;11.414;2022-07-06T03:33:01;13.90;99.90
24814;DHT22;12904;50.088;11.414;2022-07-06T03:35:27;13.90;99.90
24814;DHT22;12904;50.088;11.414;2022-07-06T03:37:53;13.90;99.90
24814;DHT22;12904;50.088;11.414;2022-07-06T03:40:20;13.80;99.90
24814;DHT22;12904;50.088;11.414;2022-07-06T03:42:46;13.80;99.90
24814;DHT22;12904;50.088;11.414;2022-07-06T03:45:12;13.80;99.90
24814;DHT22;12904;50.088;11.414;2022-07-06T03:47:37;13.80;99.90
24814;DHT22;12904;50.088;11.414;2022-07-06T03:50:03;13.80;99.90
24814;DHT22;12904;50.088;11.414;2022-07-06T03:52:29;13.80;99.90
24814;DHT22;12904;50.088;11.414;2022-07-06T03:54:55;13.80;99.90
24814;DHT22;12904;50.088;11.414;2022-07-06T03:57:21;13.80;99.90
24814;DHT22;12904;50.088;11.414;2022-07-06T03:59:47;13.80;99.90
24814;DHT22;12904;50.088;11.414;2022-07-06T04:02:13;13.80;99.90
24814;DHT22;12904;50.088;11.414;2022-07-06T04:04:39;13.80;99.90
24814;DHT22;12904;50.088;11.414;2022-07-06T04:07:04;13.80;99.90
24814;DHT22;12904;50.088;11.414;2022-07-06T04:09:30;13.90;99.90
24814;DHT22;12904;50.088;11.414;2022-07-06T04:11:56;13.90;99.90
24814;DHT22;12904;50.088;11.414;2022-07-06T04:14:23;13.90;99.90
24814;DHT22;12904;50.088;11.414;2022-07-06T04:16:48;14.00;99.90
24814;DHT22;12904;50.088;11.414;2022-07-06T04:19:14;14.10;99.90
24814;DHT22;12904;50.088;11.414;2022-07-06T04:21:40;14.20;99.90
24814;DHT22;12904;50.088;11.414;2022-07-06T04:24:06;14.30;99.90
24814;DHT22;12904;50.088;11.414;2022-07-06T04:26:31;14.30;99.90
24814;DHT22;12904;50.088;11.414;2022-07-06T04:28:57;14.40;99.90
24814;DHT22;12904;50.088;11.414;2022-07-06T04:31:22;14.50;99.90
24814;DHT22;12904;50.088;11.414;2022-07-06T04:33:48;14.50;99.90
24814;DHT22;12904;50.088;11.414;2022-07-06T04:36:14;14.60;99.90
24814;DHT22;12904;50.088;11.414;2022-07-06T04:38:40;14.70;99.90
24814;DHT22;12904;50.088;11.414;2022-07-06T04:41:05;14.80;99.90
24814;DHT22;12904;50.088;11.414;2022-07-06T04:43:31;14.90;99.90
24814;DHT22;12904;50.088;11.414;2022-07-06T04:45:57;15.00;99.90
24814;DHT22;12904;50.088;11.414;2022-07-06T04:48:22;15.10;99.90
24814;DHT22;12904;50.088;11.414;2022-07-06T04:50:48;15.20;99.90
24814;DHT22;12904;50.088;11.414;2022-07-06T04:53:14;15.20;99.90
24814;DHT22;12904;50.088;11.414;2022-07-06T04:55:39;15.30;99.90
24814;DHT22;12904;50.088;11.414;2022-07-06T04:58:05;15.30;99.90
24814;DHT22;12904;50.088;11.414;2022-07-06T05:00:31;15.30;99.90
24814;DHT22;12904;50.088;11.414;2022-07-06T05:02:56;15.30;99.90
24814;DHT22;12904;50.088;11.414;2022-07-06T05:05:22;15.40;99.90
24814;DHT22;12904;50.088;11.414;2022-07-06T05:07:48;15.60;99.90
24814;DHT22;12904;50.088;11.414;2022-07-06T05:10:14;15.70;99.90
24814;DHT22;12904;50.088;11.414;2022-07-06T05:12:40;15.90;99.90
24814;DHT22;12904;50.088;11.414;2022-07-06T05:15:06;16.10;99.90
24814;DHT22;12904;50.088;11.414;2022-07-06T05:17:32;16.50;99.90
24814;DHT22;12904;50.088;11.414;2022-07-06T05:19:58;17.40;99.90
24814;DHT22;12904;50.088;11.414;2022-07-06T05:22:24;18.40;99.90
24814;DHT22;12904;50.088;11.414;2022-07-06T05:24:50;19.50;99.90
24814;DHT22;12904;50.088;11.414;2022-07-06T05:27:16;21.00;95.10
24814;DHT22;12904;50.088;11.414;2022-07-06T05:29:42;22.30;89.10
24814;DHT22;12904;50.088;11.414;2022-07-06T05:32:07;23.70;79.70
24814;DHT22;12904;50.088;11.414;2022-07-06T05:34:33;24.90;71.90
24814;DHT22;12904;50.088;11.414;2022-07-06T05:37:00;25.70;68.30
24814;DHT22;12904;50.088;11.414;2022-07-06T05:39:26;25.90;65.40
24814;DHT22;12904;50.088;11.414;2022-07-06T05:41:52;25.80;65.80
24814;DHT22;12904;50.088;11.414;2022-07-06T05:44:17;25.40;65.30
24814;DHT22;12904;50.088;11.414;2022-07-06T05:46:43;24.80;67.10
24814;DHT22;12904;50.088;11.414;2022-07-06T05:49:09;24.30;66.70
24814;DHT22;12904;50.088;11.414;2022-07-06T05:51:53;23.80;68.40
24814;DHT22;12904;50.088;11.414;2022-07-06T05:54:19;23.60;69.00
24814;DHT22;12904;50.088;11.414;2022-07-06T05:56:44;23.80;66.50
24814;DHT22;12904;50.088;11.414;2022-07-06T05:59:10;24.10;67.00
24814;DHT22;12904;50.088;11.414;2022-07-06T06:01:36;24.70;64.80
24814;DHT22;12904;50.088;11.414;2022-07-06T06:04:01;24.80;62.30
24814;DHT22;12904;50.088;11.414;2022-07-06T06:06:27;24.80;62.50
24814;DHT22;12904;50.088;11.414;2022-07-06T06:08:53;25.00;60.40
24814;DHT22;12904;50.088;11.414;2022-07-06T06:11:18;25.30;60.60
24814;DHT22;12904;50.088;11.414;2022-07-06T06:13:44;25.20;59.10
24814;DHT22;12904;50.088;11.414;2022-07-06T06:16:10;25.10;59.00
24814;DHT22;12904;50.088;11.414;2022-07-06T06:18:35;25.40;58.20
24814;DHT22;12904;50.088;11.414;2022-07-06T06:21:01;26.20;56.60
24814;DHT22;12904;50.088;11.414;2022-07-06T06:23:27;27.20;53.60
24814;DHT22;12904;50.088;11.414;2022-07-06T06:25:52;28.10;52.60
24814;DHT22;12904;50.088;11.414;2022-07-06T06:28:18;28.70;49.90
24814;DHT22;12904;50.088;11.414;2022-07-06T06:30:45;29.10;48.00
24814;DHT22;12904;50.088;11.414;2022-07-06T06:33:15;29.70;47.70
24814;DHT22;12904;50.088;11.414;2022-07-06T06:35:43;30.30;47.20
24814;DHT22;12904;50.088;11.414;2022-07-06T06:38:10;30.60;45.30
24814;DHT22;12904;50.088;11.414;2022-07-06T06:40:36;31.00;43.90
24814;DHT22;12904;50.088;11.414;2022-07-06T06:43:01;31.40;43.70
24814;DHT22;12904;50.088;11.414;2022-07-06T06:45:30;31.90;42.40
24814;DHT22;12904;50.088;11.414;2022-07-06T06:47:56;32.40;41.70
24814;DHT22;12904;50.088;11.414;2022-07-06T06:50:22;32.60;41.40
24814;DHT22;12904;50.088;11.414;2022-07-06T06:52:51;33.10;39.20
24814;DHT22;12904;50.088;11.414;2022-07-06T06:55:17;33.00;38.30
24814;DHT22;12904;50.088;11.414;2022-07-06T06:57:43;33.30;40.10
24814;DHT22;12904;50.088;11.414;2022-07-06T07:00:09;33.30;38.60
24814;DHT22;12904;50.088;11.414;2022-07-06T07:02:35;33.20;39.50
24814;DHT22;12904;50.088;11.414;2022-07-06T07:05:02;33.40;38.90
24814;DHT22;12904;50.088;11.414;2022-07-06T07:07:27;33.80;38.70
24814;DHT22;12904;50.088;11.414;2022-07-06T07:09:53;34.00;38.50
24814;DHT22;12904;50.088;11.414;2022-07-06T07:12:19;34.30;39.20
24814;DHT22;12904;50.088;11.414;2022-07-06T07:14:45;33.90;38.20
24814;DHT22;12904;50.088;11.414;2022-07-06T07:17:10;34.10;39.30
24814;DHT22;12904;50.088;11.414;2022-07-06T07:19:37;34.60;35.80
24814;DHT22;12904;50.088;11.414;2022-07-06T07:22:03;34.80;35.70
24814;DHT22;12904;50.088;11.414;2022-07-06T07:24:29;34.80;35.40
24814;DHT22;12904;50.088;11.414;2022-07-06T07:26:55;34.80;37.30
24814;DHT22;12904;50.088;11.414;2022-07-06T07:29:21;34.70;36.20
24814;DHT22;12904;50.088;11.414;2022-07-06T07:31:47;34.60;35.50
24814;DHT22;12904;50.088;11.414;2022-07-06T07:34:12;34.20;35.10
24814;DHT22;12904;50.088;11.414;2022-07-06T07:36:38;34.20;36.20
24814;DHT22;12904;50.088;11.414;2022-07-06T07:39:04;34.60;36.90
24814;DHT22;12904;50.088;11.414;2022-07-06T07:41:30;35.10;35.00
24814;DHT22;12904;50.088;11.414;2022-07-06T07:43:55;35.80;35.20
24814;DHT22;12904;50.088;11.414;2022-07-06T07:46:21;35.80;33.60
24814;DHT22;12904;50.088;11.414;2022-07-06T07:48:47;35.90;34.60
24814;DHT22;12904;50.088;11.414;2022-07-06T07:51:13;35.70;34.60
24814;DHT22;12904;50.088;11.414;2022-07-06T07:53:39;35.40;35.40
24814;DHT22;12904;50.088;11.414;2022-07-06T07:56:05;35.30;35.40
24814;DHT22;12904;50.088;11.414;2022-07-06T07:58:30;35.50;34.90
24814;DHT22;12904;50.088;11.414;2022-07-06T08:00:56;35.70;34.50
24814;DHT22;12904;50.088;11.414;2022-07-06T08:03:23;35.70;32.90
24814;DHT22;12904;50.088;11.414;2022-07-06T08:05:49;35.80;33.50
24814;DHT22;12904;50.088;11.414;2022-07-06T08:08:16;36.00;34.30
24814;DHT22;12904;50.088;11.414;2022-07-06T08:10:41;36.50;33.70
24814;DHT22;12904;50.088;11.414;2022-07-06T08:13:07;36.70;33.90
24814;DHT22;12904;50.088;11.414;2022-07-06T08:15:33;36.00;34.00
24814;DHT22;12904;50.088;11.414;2022-07-06T08:17:59;35.50;34.50
24814;DHT22;12904;50.088;11.414;2022-07-06T08:20:25;35.20;34.80
24814;DHT22;12904;50.088;11.414;2022-07-06T08:22:51;35.80;35.10
24814;DHT22;12904;50.088;11.414;2022-07-06T08:25:16;36.50;34.30
24814;DHT22;12904;50.088;11.414;2022-07-06T08:27:43;36.80;31.30
24814;DHT22;12904;50.088;11.414;2022-07-06T08:30:09;37.30;31.50
24814;DHT22;12904;50.088;11.414;2022-07-06T08:32:42;37.40;31.40
24814;DHT22;12904;50.088;11.414;2022-07-06T08:35:09;36.00;33.00
24814;DHT22;12904;50.088;11.414;2022-07-06T08:37:35;35.10;35.40
24814;DHT22;12904;50.088;11.414;2022-07-06T08:40:00;33.60;36.70
24814;DHT22;12904;50.088;11.414;2022-07-06T08:42:31;32.30;39.10
24814;DHT22;12904;50.088;11.414;2022-07-06T08:45:05;31.00;40.80
24814;DHT22;12904;50.088;11.414;2022-07-06T08:47:31;31.10;41.70
24814;DHT22;12904;50.088;11.414;2022-07-06T08:49:57;31.60;40.90
24814;DHT22;12904;50.088;11.414;2022-07-06T08:52:23;32.00;39.60
24814;DHT22;12904;50.088;11.414;2022-07-06T08:54:49;32.60;39.00
24814;DHT22;12904;50.088;11.414;2022-07-06T08:57:15;33.50;38.30
24814;DHT22;12904;50.088;11.414;2022-07-06T08:59:42;34.30;37.50
24814;DHT22;12904;50.088;11.414;2022-07-06T09:02:10;34.70;35.90
24814;DHT22;12904;50.088;11.414;2022-07-06T09:04:36;34.50;36.30
24814;DHT22;12904;50.088;11.414;2022-07-06T09:07:03;33.70;36.60
24814;DHT22;12904;50.088;11.414;2022-07-06T09:09:30;32.50;38.40
24814;DHT22;12904;50.088;11.414;2022-07-06T09:11:58;31.50;39.20
24814;DHT22;12904;50.088;11.414;2022-07-06T09:14:25;30.70;40.40
24814;DHT22;12904;50.088;11.414;2022-07-06T09:17:03;30.80;41.80
24814;DHT22;12904;50.088;11.414;2022-07-06T09:19:30;31.50;40.30
24814;DHT22;12904;50.088;11.414;2022-07-06T09:21:56;32.00;39.50
24814;DHT22;12904;50.088;11.414;2022-07-06T09:24:22;31.90;39.50
24814;DHT22;12904;50.088;11.414;2022-07-06T09:26:48;32.00;39.80
24814;DHT22;12904;50.088;11.414;2022-07-06T09:29:14;32.30;39.40
24814;DHT22;12904;50.088;11.414;2022-07-06T09:31:40;32.10;39.20
24814;DHT22;12904;50.088;11.414;2022-07-06T09:34:07;32.00;38.80
24814;DHT22;12904;50.088;11.414;2022-07-06T09:36:44;31.60;39.90
24814;DHT22;12904;50.088;11.414;2022-07-06T09:39:25;31.90;40.20
24814;DHT22;12904;50.088;11.414;2022-07-06T09:41:56;32.00;37.90
24814;DHT22;12904;50.088;11.414;2022-07-06T09:46:59;33.10;36.70
24814;DHT22;12904;50.088;11.414;2022-07-06T09:49:25;34.60;35.90
24814;DHT22;12904;50.088;11.414;2022-07-06T09:51:53;34.90;34.90
24814;DHT22;12904;50.088;11.414;2022-07-06T09:54:19;34.20;35.70
24814;DHT22;12904;50.088;11.414;2022-07-06T09:56:46;34.00;36.90
24814;DHT22;12904;50.088;11.414;2022-07-06T09:59:19;34.90;35.50
24814;DHT22;12904;50.088;11.414;2022-07-06T10:01:46;35.50;34.40
24814;DHT22;12904;50.088;11.414;2022-07-06T10:04:13;35.90;33.50
24814;DHT22;12904;50.088;11.414;2022-07-06T10:06:40;36.60;32.60
24814;DHT22;12904;50.088;11.414;2022-07-06T10:09:08;37.30;33.10
24814;DHT22;12904;50.088;11.414;2022-07-06T10:11:48;37.30;32.00
24814;DHT22;12904;50.088;11.414;2022-07-06T10:14:17;36.60;31.40
24814;DHT22;12904;50.088;11.414;2022-07-06T10:16:45;35.40;32.70
24814;DHT22;12904;50.088;11.414;2022-07-06T10:19:11;35.20;33.70
24814;DHT22;12904;50.088;11.414;2022-07-06T10:21:38;34.30;33.60
24814;DHT22;12904;50.088;11.414;2022-07-06T10:24:05;33.60;36.10
24814;DHT22;12904;50.088;11.414;2022-07-06T10:26:35;34.20;35.00
24814;DHT22;12904;50.088;11.414;2022-07-06T10:29:02;35.30;33.80
24814;DHT22;12904;50.088;11.414;2022-07-06T10:31:29;35.20;33.60
24814;DHT22;12904;50.088;11.414;2022-07-06T10:34:04;34.50;34.50
24814;DHT22;12904;50.088;11.414;2022-07-06T10:36:40;33.20;36.80
24814;DHT22;12904;50.088;11.414;2022-07-06T10:39:06;31.60;38.70
24814;DHT22;12904;50.088;11.414;2022-07-06T10:41:51;30.40;40.30
24814;DHT22;12904;50.088;11.414;2022-07-06T10:44:19;29.00;42.20
24814;DHT22;12904;50.088;11.414;2022-07-06T10:46:52;28.30;43.40
24814;DHT22;12904;50.088;11.414;2022-07-06T10:49:18;27.50;44.80
24814;DHT22;12904;50.088;11.414;2022-07-06T10:51:44;27.20;45.50
24814;DHT22;12904;50.088;11.414;2022-07-06T10:54:10;26.90;46.20
24814;DHT22;12904;50.088;11.414;2022-07-06T10:59:09;27.50;47.10
24814;DHT22;12904;50.088;11.414;2022-07-06T11:01:35;28.80;44.50
24814;DHT22;12904;50.088;11.414;2022-07-06T11:06:30;30.90;40.90
24814;DHT22;12904;50.088;11.414;2022-07-06T11:09:04;31.50;40.10
24814;DHT22;12904;50.088;11.414;2022-07-06T11:16:29;32.70;38.10
24814;DHT22;12904;50.088;11.414;2022-07-06T11:19:15;32.40;38.80
24814;DHT22;12904;50.088;11.414;2022-07-06T11:24:22;31.80;38.70
24814;DHT22;12904;50.088;11.414;2022-07-06T11:26:50;32.10;35.30
24814;DHT22;12904;50.088;11.414;2022-07-06T11:29:18;32.10;36.80
24814;DHT22;12904;50.088;11.414;2022-07-06T11:31:48;31.60;37.60
24814;DHT22;12904;50.088;11.414;2022-07-06T11:34:19;30.30;38.60
24814;DHT22;12904;50.088;11.414;2022-07-06T11:36:45;29.40;40.20
24814;DHT22;12904;50.088;11.414;2022-07-06T11:39:11;29.00;42.60
24814;DHT22;12904;50.088;11.414;2022-07-06T11:41:37;29.20;43.00
24814;DHT22;12904;50.088;11.414;2022-07-06T11:44:03;29.20;42.10
24814;DHT22;12904;50.088;11.414;2022-07-06T11:46:30;29.60;40.10
24814;DHT22;12904;50.088;11.414;2022-07-06T11:51:28;29.70;38.30
24814;DHT22;12904;50.088;11.414;2022-07-06T11:53:59;29.80;38.00
24814;DHT22;12904;50.088;11.414;2022-07-06T11:56:29;29.90;38.40
24814;DHT22;12904;50.088;11.414;2022-07-06T11:58:59;30.20;38.90
24814;DHT22;12904;50.088;11.414;2022-07-06T12:01:27;30.30;38.20
24814;DHT22;12904;50.088;11.414;2022-07-06T12:03:57;30.60;38.30
24814;DHT22;12904;50.088;11.414;2022-07-06T12:06:25;30.40;36.50
24814;DHT22;12904;50.088;11.414;2022-07-06T12:08:51;30.30;36.40
24814;DHT22;12904;50.088;11.414;2022-07-06T12:11:28;30.30;36.90
24814;DHT22;12904;50.088;11.414;2022-07-06T12:13:58;30.50;37.00
24814;DHT22;12904;50.088;11.414;2022-07-06T12:16:32;30.70;36.10
24814;DHT22;12904;50.088;11.414;2022-07-06T12:19:00;30.70;37.20
24814;DHT22;12904;50.088;11.414;2022-07-06T12:21:27;30.30;36.20
24814;DHT22;12904;50.088;11.414;2022-07-06T12:23:54;29.60;37.00
24814;DHT22;12904;50.088;11.414;2022-07-06T12:26:27;29.40;37.90
24814;DHT22;12904;50.088;11.414;2022-07-06T12:29:06;29.50;37.50
24814;DHT22;12904;50.088;11.414;2022-07-06T12:34:22;29.40;36.30
24814;DHT22;12904;50.088;11.414;2022-07-06T12:36:50;29.00;37.90
24814;DHT22;12904;50.088;11.414;2022-07-06T12:39:21;28.80;39.40
24814;DHT22;12904;50.088;11.414;2022-07-06T12:41:54;28.60;39.40
24814;DHT22;12904;50.088;11.414;2022-07-06T12:44:25;28.30;40.80
24814;DHT22;12904;50.088;11.414;2022-07-06T12:47:11;28.20;40.90
24814;DHT22;12904;50.088;11.414;2022-07-06T12:49:38;28.40;40.30
24814;DHT22;12904;50.088;11.414;2022-07-06T12:52:08;28.60;39.90
24814;DHT22;12904;50.088;11.414;2022-07-06T12:57:17;29.50;38.80
24814;DHT22;12904;50.088;11.414;2022-07-06T12:59:53;29.80;37.50
24814;DHT22;12904;50.088;11.414;2022-07-06T13:02:34;29.90;37.80
24814;DHT22;12904;50.088;11.414;2022-07-06T13:07:32;30.00;38.40
24814;DHT22;12904;50.088;11.414;2022-07-06T13:10:09;29.50;38.60
24814;DHT22;12904;50.088;11.414;2022-07-06T13:12:36;29.30;39.40
24814;DHT22;12904;50.088;11.414;2022-07-06T13:15:03;29.10;40.00
24814;DHT22;12904;50.088;11.414;2022-07-06T13:17:28;28.90;39.00
24814;DHT22;12904;50.088;11.414;2022-07-06T13:19:54;28.60;39.90
24814;DHT22;12904;50.088;11.414;2022-07-06T13:22:20;28.60;39.60
24814;DHT22;12904;50.088;11.414;2022-07-06T13:24:45;28.90;39.90
24814;DHT22;12904;50.088;11.414;2022-07-06T13:27:12;28.90;39.20
24814;DHT22;12904;50.088;11.414;2022-07-06T13:29:37;28.50;39.10
24814;DHT22;12904;50.088;11.414;2022-07-06T13:32:04;28.50;40.30
24814;DHT22;12904;50.088;11.414;2022-07-06T13:34:30;28.30;40.20
24814;DHT22;12904;50.088;11.414;2022-07-06T13:36:56;28.10;40.70
24814;DHT22;12904;50.088;11.414;2022-07-06T13:39:22;27.80;41.80
24814;DHT22;12904;50.088;11.414;2022-07-06T13:41:48;27.70;41.30
24814;DHT22;12904;50.088;11.414;2022-07-06T13:44:14;27.90;41.30
24814;DHT22;12904;50.088;11.414;2022-07-06T13:46:40;28.20;40.80
24814;DHT22;12904;50.088;11.414;2022-07-06T13:49:06;28.30;40.70
24814;DHT22;12904;50.088;11.414;2022-07-06T13:51:32;28.20;40.90
24814;DHT22;12904;50.088;11.414;2022-07-06T13:53:59;28.10;41.10
24814;DHT22;12904;50.088;11.414;2022-07-06T13:56:25;27.80;41.00
24814;DHT22;12904;50.088;11.414;2022-07-06T13:58:51;27.90;42.20
24814;DHT22;12904;50.088;11.414;2022-07-06T14:01:17;27.80;41.20
24814;DHT22;12904;50.088;11.414;2022-07-06T14:03:43;27.60;41.30
24814;DHT22;12904;50.088;11.414;2022-07-06T14:06:09;27.50;41.80
24814;DHT22;12904;50.088;11.414;2022-07-06T14:08:36;27.50;40.90
24814;DHT22;12904;50.088;11.414;2022-07-06T14:11:03;27.60;42.70
24814;DHT22;12904;50.088;11.414;2022-07-06T14:13:32;27.60;41.90
24814;DHT22;12904;50.088;11.414;2022-07-06T14:15:58;27.70;41.20
24814;DHT22;12904;50.088;11.414;2022-07-06T14:18:24;27.60;41.50
24814;DHT22;12904;50.088;11.414;2022-07-06T14:20:51;27.40;41.30
24814;DHT22;12904;50.088;11.414;2022-07-06T14:23:17;27.10;42.50
24814;DHT22;12904;50.088;11.414;2022-07-06T14:25:43;27.00;42.30
24814;DHT22;12904;50.088;11.414;2022-07-06T14:28:10;26.90;42.40
24814;DHT22;12904;50.088;11.414;2022-07-06T14:30:36;26.90;42.30
24814;DHT22;12904;50.088;11.414;2022-07-06T14:33:04;26.90;42.90
24814;DHT22;12904;50.088;11.414;2022-07-06T14:35:38;26.80;42.20
24814;DHT22;12904;50.088;11.414;2022-07-06T14:38:05;26.60;43.00
24814;DHT22;12904;50.088;11.414;2022-07-06T14:40:31;26.50;42.90
24814;DHT22;12904;50.088;11.414;2022-07-06T14:42:57;26.40;43.50
24814;DHT22;12904;50.088;11.414;2022-07-06T14:45:23;26.30;43.70
24814;DHT22;12904;50.088;11.414;2022-07-06T14:47:49;26.20;42.20
24814;DHT22;12904;50.088;11.414;2022-07-06T14:50:15;26.40;42.80
24814;DHT22;12904;50.088;11.414;2022-07-06T14:52:41;26.40;43.60
24814;DHT22;12904;50.088;11.414;2022-07-06T14:55:07;26.40;42.80
24814;DHT22;12904;50.088;11.414;2022-07-06T14:57:32;26.60;42.20
24814;DHT22;12904;50.088;11.414;2022-07-06T14:59:58;26.70;42.00
24814;DHT22;12904;50.088;11.414;2022-07-06T15:02:24;26.90;41.90
24814;DHT22;12904;50.088;11.414;2022-07-06T15:04:50;26.80;42.50
24814;DHT22;12904;50.088;11.414;2022-07-06T15:07:16;26.70;41.60
24814;DHT22;12904;50.088;11.414;2022-07-06T15:09:42;26.60;41.50
24814;DHT22;12904;50.088;11.414;2022-07-06T15:12:08;26.50;41.70
24814;DHT22;12904;50.088;11.414;2022-07-06T15:14:34;26.60;41.30
24814;DHT22;12904;50.088;11.414;2022-07-06T15:17:00;26.80;41.90
24814;DHT22;12904;50.088;11.414;2022-07-06T15:19:26;26.90;41.10
24814;DHT22;12904;50.088;11.414;2022-07-06T15:21:53;26.80;40.70
24814;DHT22;12904;50.088;11.414;2022-07-06T15:24:19;26.80;40.90
24814;DHT22;12904;50.088;11.414;2022-07-06T15:26:45;26.80;41.40
24814;DHT22;12904;50.088;11.414;2022-07-06T15:29:10;26.80;40.80
24814;DHT22;12904;50.088;11.414;2022-07-06T15:31:36;26.60;40.10
24814;DHT22;12904;50.088;11.414;2022-07-06T15:34:02;26.60;40.90
24814;DHT22;12904;50.088;11.414;2022-07-06T15:36:28;26.50;40.10
24814;DHT22;12904;50.088;11.414;2022-07-06T15:38:54;26.40;40.10